Max Planck — ELZY8 — position and weather

sailwx.info

Track history (hours):
 
Tides and Currents Weather Stations Pressure Air Temp Water Temp Dewpoint Dewpoint Depression Visibility Wind Speed Wind Dir Waves Ship Positions

Max Planck

Last reported at 2015-Feb-27 13:30 UTC. Time now 2015-Feb-28 12:32 UTC.
Position N 30°59' E 122°33'.

Length 99.9 m; beam 16.2 m; draft 6.8 m.

Type: Tanker. MMSI: 636091773.

Date/timePositionNaut miles runAvg speedWind from/ knotsBaromVisibWave heightAir tempDewpointWater temp
2015-Feb-27 13:30N 30°59' E 122°33'1010.3
2015-Feb-27 12:33N 31°01' E 122°22'1110.7
2015-Feb-27 11:33N 31°03' E 122°10'7 6.8
2015-Feb-27 10:33N 31°05' E 122°02'1111.0
2015-Feb-27 09:33N 31°10' E 121°51'1211.8
2015-Feb-27 08:33N 31°19' E 121°42'1111.2
2015-Feb-27 07:33N 31°25' E 121°30'10 9.5
2015-Feb-27 06:33N 31°31' E 121°22'1413.5
2015-Feb-27 05:33N 31°41' E 121°11'1313.2
2015-Feb-27 04:32N 31°47' E 120°57'1312.8
2015-Feb-27 03:33N 31°58' E 120°51'1111.0
2015-Feb-27 02:33N 31°60' E 120°38'1010.4
2015-Feb-27 01:33N 32°03' E 120°26'1111.4
2015-Feb-27 00:33N 31°56' E 120°15'8 7.4
2015-Feb-26 23:27N 31°57' E 120°06'0 0.0
2015-Feb-26 07:23N 31°57' E 120°06'4 4.1
2015-Feb-26 06:27N 31°56' E 120°10'0 0.0
2015-Feb-26 05:33N 31°56' E 120°10'0 0.0
2015-Feb-26 04:33N 31°56' E 120°10'0 0.2
2015-Feb-26 03:33N 31°56' E 120°10'3 2.7
2015-Feb-26 02:33N 31°56' E 120°13'1312.8
2015-Feb-26 01:33N 32°03' E 120°26'1211.6
2015-Feb-26 00:33N 31°60' E 120°39'1111.5
2015-Feb-25 23:33N 31°57' E 120°52'1311.7
2015-Feb-25 22:25N 31°46' E 121°02'1 1.0
2015-Feb-25 21:33N 31°47' E 121°03'0 0.0
2015-Feb-25 20:33N 31°47' E 121°03'0 0.1
2015-Feb-25 19:33N 31°47' E 121°03'0 0.0
2015-Feb-25 18:33N 31°47' E 121°03'0 0.0
2015-Feb-25 17:33N 31°47' E 121°03'0 0.0
2015-Feb-25 16:33N 31°47' E 121°03'0 0.0
2015-Feb-25 15:33N 31°47' E 121°03'0 0.0
2015-Feb-25 14:33N 31°47' E 121°03'0 0.1
2015-Feb-25 13:33N 31°47' E 121°03'0 0.0
2015-Feb-25 12:33N 31°47' E 121°03'0 0.1
2015-Feb-25 11:33N 31°47' E 121°03'0 0.1
2015-Feb-25 10:33N 31°47' E 121°03'1010.1
2015-Feb-25 09:34N 31°40' E 121°12'1312.8
2015-Feb-25 08:33N 31°31' E 121°23'1110.7
2015-Feb-25 07:33N 31°25' E 121°32'10 9.7
2015-Feb-25 06:33N 31°19' E 121°42'1110.7
2015-Feb-25 05:34N 31°11' E 121°50'1111.2
2015-Feb-25 04:33N 31°05' E 122°01'1110.6
2015-Feb-25 03:34N 31°03' E 122°13'8 7.9
2015-Feb-25 02:34N 31°02' E 122°22'  
2015-Feb-20 05:33N 34°60' E 139°33'1111.2
2015-Feb-20 04:33N 35°06' E 139°44'1212.2
2015-Feb-20 03:33N 35°18' E 139°44'1110.8
2015-Feb-20 02:33N 35°28' E 139°47'3 0.7
2015-Feb-19 22:29N 35°31' E 139°46'0 0.0
2015-Feb-19 21:22N 35°31' E 139°46'1 0.1
2015-Feb-19 05:33N 35°30' E 139°45'3 2.8
2015-Feb-19 04:32N 35°28' E 139°44'0 0.1
2015-Feb-19 03:33N 35°28' E 139°44'0 0.1
2015-Feb-19 02:33N 35°28' E 139°44'0 0.0
2015-Feb-19 01:33N 35°28' E 139°44'0 0.0
2015-Feb-19 00:33N 35°28' E 139°44'0 0.0
2015-Feb-18 23:33N 35°28' E 139°44'0 0.1
2015-Feb-18 22:34N 35°28' E 139°44'0 0.0
2015-Feb-18 21:33N 35°28' E 139°44'0 0.1
2015-Feb-18 20:33N 35°28' E 139°44'0 0.0
2015-Feb-18 19:33N 35°28' E 139°44'0 0.0
2015-Feb-18 18:33N 35°28' E 139°44'0 0.0
2015-Feb-18 17:33N 35°28' E 139°44'0 0.1
2015-Feb-18 16:33N 35°28' E 139°44'0 0.0
2015-Feb-18 15:33N 35°28' E 139°44'0 0.0
2015-Feb-18 14:33N 35°28' E 139°44'0 0.0
2015-Feb-18 13:33N 35°28' E 139°44'0 0.0
2015-Feb-18 12:33N 35°28' E 139°44'0 0.0
2015-Feb-18 11:33N 35°28' E 139°44'0 0.0
2015-Feb-18 10:33N 35°28' E 139°44'0 0.0
2015-Feb-18 09:33N 35°28' E 139°44'0 0.0
2015-Feb-18 08:33N 35°28' E 139°44'0 0.0
2015-Feb-18 07:33N 35°28' E 139°44'0 0.0
2015-Feb-18 06:33N 35°28' E 139°44'0 0.0
2015-Feb-18 05:33N 35°28' E 139°44'0 0.0
2015-Feb-18 04:33N 35°28' E 139°44'0 0.0
2015-Feb-18 03:33N 35°28' E 139°44'0 0.0
2015-Feb-18 02:33N 35°28' E 139°44'0 0.0
2015-Feb-18 01:33N 35°28' E 139°44'0 0.0
2015-Feb-18 00:33N 35°28' E 139°44'0 0.0
2015-Feb-17 23:33N 35°28' E 139°44'0 0.0
2015-Feb-17 22:33N 35°28' E 139°44'0 0.0
2015-Feb-17 21:33N 35°28' E 139°44'0 0.0
2015-Feb-17 20:33N 35°28' E 139°44'0 0.0
2015-Feb-17 19:34N 35°28' E 139°44'0 0.0
2015-Feb-17 17:33N 35°28' E 139°44'0 0.1
2015-Feb-17 16:33N 35°28' E 139°44'0 0.0
2015-Feb-17 15:33N 35°28' E 139°44'0 0.0
2015-Feb-17 14:33N 35°28' E 139°44'0 0.0
2015-Feb-17 13:33N 35°28' E 139°44'  
Track history (hours):
 
Tides and Currents Weather Stations Pressure Air Temp Water Temp Dewpoint Dewpoint Depression Visibility Wind Speed Wind Dir Waves Ship Positions

Max Planck

Last reported at 2015-Feb-27 13:30 UTC. Time now 2015-Feb-28 12:32 UTC.
Position N 30°59' E 122°33'.

Length 99.9 m; beam 16.2 m; draft 6.8 m.

Type: Tanker. MMSI: 636091773.

Date/timePositionNaut miles runAvg speedWind from/ knotsBaromVisibWave heightAir tempDewpointWater temp
2015-Feb-27 13:30N 30°59' E 122°33'1010.3
2015-Feb-27 12:33N 31°01' E 122°22'1110.7
2015-Feb-27 11:33N 31°03' E 122°10'7 6.8
2015-Feb-27 10:33N 31°05' E 122°02'1111.0
2015-Feb-27 09:33N 31°10' E 121°51'1211.8
2015-Feb-27 08:33N 31°19' E 121°42'1111.2
2015-Feb-27 07:33N 31°25' E 121°30'10 9.5
2015-Feb-27 06:33N 31°31' E 121°22'1413.5
2015-Feb-27 05:33N 31°41' E 121°11'1313.2
2015-Feb-27 04:32N 31°47' E 120°57'1312.8
2015-Feb-27 03:33N 31°58' E 120°51'1111.0
2015-Feb-27 02:33N 31°60' E 120°38'1010.4
2015-Feb-27 01:33N 32°03' E 120°26'1111.4
2015-Feb-27 00:33N 31°56' E 120°15'8 7.4
2015-Feb-26 23:27N 31°57' E 120°06'0 0.0
2015-Feb-26 07:23N 31°57' E 120°06'4 4.1
2015-Feb-26 06:27N 31°56' E 120°10'0 0.0
2015-Feb-26 05:33N 31°56' E 120°10'0 0.0
2015-Feb-26 04:33N 31°56' E 120°10'0 0.2
2015-Feb-26 03:33N 31°56' E 120°10'3 2.7
2015-Feb-26 02:33N 31°56' E 120°13'1312.8
2015-Feb-26 01:33N 32°03' E 120°26'1211.6
2015-Feb-26 00:33N 31°60' E 120°39'1111.5
2015-Feb-25 23:33N 31°57' E 120°52'1311.7
2015-Feb-25 22:25N 31°46' E 121°02'1 1.0
2015-Feb-25 21:33N 31°47' E 121°03'0 0.0
2015-Feb-25 20:33N 31°47' E 121°03'0 0.1
2015-Feb-25 19:33N 31°47' E 121°03'0 0.0
2015-Feb-25 18:33N 31°47' E 121°03'0 0.0
2015-Feb-25 17:33N 31°47' E 121°03'0 0.0
2015-Feb-25 16:33N 31°47' E 121°03'0 0.0
2015-Feb-25 15:33N 31°47' E 121°03'0 0.0
2015-Feb-25 14:33N 31°47' E 121°03'0 0.1
2015-Feb-25 13:33N 31°47' E 121°03'0 0.0
2015-Feb-25 12:33N 31°47' E 121°03'0 0.1
2015-Feb-25 11:33N 31°47' E 121°03'0 0.1
2015-Feb-25 10:33N 31°47' E 121°03'1010.1
2015-Feb-25 09:34N 31°40' E 121°12'1312.8
2015-Feb-25 08:33N 31°31' E 121°23'1110.7
2015-Feb-25 07:33N 31°25' E 121°32'10 9.7
2015-Feb-25 06:33N 31°19' E 121°42'1110.7
2015-Feb-25 05:34N 31°11' E 121°50'1111.2
2015-Feb-25 04:33N 31°05' E 122°01'1110.6
2015-Feb-25 03:34N 31°03' E 122°13'8 7.9
2015-Feb-25 02:34N 31°02' E 122°22'  
2015-Feb-20 05:33N 34°60' E 139°33'1111.2
2015-Feb-20 04:33N 35°06' E 139°44'1212.2
2015-Feb-20 03:33N 35°18' E 139°44'1110.8
2015-Feb-20 02:33N 35°28' E 139°47'3 0.7
2015-Feb-19 22:29N 35°31' E 139°46'0 0.0
2015-Feb-19 21:22N 35°31' E 139°46'1 0.1
2015-Feb-19 05:33N 35°30' E 139°45'3 2.8
2015-Feb-19 04:32N 35°28' E 139°44'0 0.1
2015-Feb-19 03:33N 35°28' E 139°44'0 0.1
2015-Feb-19 02:33N 35°28' E 139°44'0 0.0
2015-Feb-19 01:33N 35°28' E 139°44'0 0.0
2015-Feb-19 00:33N 35°28' E 139°44'0 0.0
2015-Feb-18 23:33N 35°28' E 139°44'0 0.1
2015-Feb-18 22:34N 35°28' E 139°44'0 0.0
2015-Feb-18 21:33N 35°28' E 139°44'0 0.1
2015-Feb-18 20:33N 35°28' E 139°44'0 0.0
2015-Feb-18 19:33N 35°28' E 139°44'0 0.0
2015-Feb-18 18:33N 35°28' E 139°44'0 0.0
2015-Feb-18 17:33N 35°28' E 139°44'0 0.1
2015-Feb-18 16:33N 35°28' E 139°44'0 0.0
2015-Feb-18 15:33N 35°28' E 139°44'0 0.0
2015-Feb-18 14:33N 35°28' E 139°44'0 0.0
2015-Feb-18 13:33N 35°28' E 139°44'0 0.0
2015-Feb-18 12:33N 35°28' E 139°44'0 0.0
2015-Feb-18 11:33N 35°28' E 139°44'0 0.0
2015-Feb-18 10:33N 35°28' E 139°44'0 0.0
2015-Feb-18 09:33N 35°28' E 139°44'0 0.0
2015-Feb-18 08:33N 35°28' E 139°44'0 0.0
2015-Feb-18 07:33N 35°28' E 139°44'0 0.0
2015-Feb-18 06:33N 35°28' E 139°44'0 0.0
2015-Feb-18 05:33N 35°28' E 139°44'0 0.0
2015-Feb-18 04:33N 35°28' E 139°44'0 0.0
2015-Feb-18 03:33N 35°28' E 139°44'0 0.0
2015-Feb-18 02:33N 35°28' E 139°44'0 0.0
2015-Feb-18 01:33N 35°28' E 139°44'0 0.0
2015-Feb-18 00:33N 35°28' E 139°44'0 0.0
2015-Feb-17 23:33N 35°28' E 139°44'0 0.0
2015-Feb-17 22:33N 35°28' E 139°44'0 0.0
2015-Feb-17 21:33N 35°28' E 139°44'0 0.0
2015-Feb-17 20:33N 35°28' E 139°44'0 0.0
2015-Feb-17 19:34N 35°28' E 139°44'0 0.0
2015-Feb-17 17:33N 35°28' E 139°44'0 0.1
2015-Feb-17 16:33N 35°28' E 139°44'0 0.0
2015-Feb-17 15:33N 35°28' E 139°44'0 0.0
2015-Feb-17 14:33N 35°28' E 139°44'0 0.0
2015-Feb-17 13:33N 35°28' E 139°44'  

Dump ship's entire track history